Time;durP1;ratioP1;P1;durP2;ratioP2;P2;SDS_P1;SDS_P2;PMS_P1;PMS_P2;Temp;Humidity;BMP_temperature;BMP_pressure;BME280_temperature;BME280_humidity;BME280_pressure;Samples;Min_cycle;Max_cycle;Signal;HPM_P1;HPM_P2
2021/12/30 08:00:27;;;;;;;61.93;31.07;;;10.60;99.90;;;;;;4825678;27;7076699;-74
2021/12/30 08:03:04;;;;;;;55.15;28.55;;;10.70;99.90;;;;;;5070864;28;20044;-71
2021/12/30 08:05:30;;;;;;;49.10;26.75;;;10.70;99.90;;;;;;5055446;28;20403;-71
2021/12/30 08:07:55;;;;;;;48.70;26.45;;;10.70;99.90;;;;;;5053253;28;20059;-70
2021/12/30 08:10:22;;;;;;;43.78;24.45;;;10.80;99.90;;;;;;5053536;28;20053;-70
2021/12/30 08:12:49;;;;;;;46.03;25.70;;;10.70;99.90;;;;;;5053210;28;20455;-69
2021/12/30 08:15:16;;;;;;;44.30;24.08;;;10.70;99.90;;;;;;5054930;28;20083;-69
2021/12/30 08:17:43;;;;;;;39.22;21.58;;;10.70;99.90;;;;;;5061216;28;20087;-69
2021/12/30 08:20:09;;;;;;;37.53;20.25;;;10.80;99.90;;;;;;5070107;28;20070;-67
2021/12/30 08:22:35;;;;;;;37.35;19.10;;;10.80;99.90;;;;;;5091052;28;20052;-68
2021/12/30 08:25:02;;;;;;;32.55;16.98;;;10.70;99.90;;;;;;5091001;28;20083;-67
2021/12/30 08:27:28;;;;;;;32.33;15.45;;;10.80;99.90;;;;;;5091008;28;20059;-68
2021/12/30 08:29:53;;;;;;;27.58;14.27;;;10.70;99.90;;;;;;5076826;28;20392;-68
2021/12/30 08:32:19;;;;;;;27.45;12.15;;;10.70;99.90;;;;;;5060457;28;20044;-68
2021/12/30 08:34:46;;;;;;;29.20;12.18;;;10.70;99.90;;;;;;5080174;28;20041;-67
2021/12/30 08:37:13;;;;;;;34.50;11.73;;;10.70;99.90;;;;;;5070930;28;20048;-67
2021/12/30 08:39:42;;;;;;;30.45;10.27;;;10.70;99.90;;;;;;5070213;28;20044;-68
2021/12/30 08:42:24;;;;;;;27.45;10.52;;;10.70;99.90;;;;;;5052418;28;20197;-68
2021/12/30 08:44:52;;;;;;;29.02;9.70;;;10.70;99.90;;;;;;5070151;28;20052;-67
2021/12/30 08:47:18;;;;;;;32.75;9.43;;;10.70;99.90;;;;;;5060398;28;20052;-68
2021/12/30 08:49:46;;;;;;;27.25;9.07;;;10.80;99.90;;;;;;5079129;28;20047;-69
2021/12/30 08:52:18;;;;;;;34.58;9.25;;;10.80;99.90;;;;;;5079282;28;20087;-69
2021/12/30 08:54:44;;;;;;;26.90;8.10;;;10.80;99.90;;;;;;5057530;28;20412;-68
2021/12/30 08:57:10;;;;;;;29.30;7.78;;;10.80;99.90;;;;;;5060796;28;20082;-69
2021/12/30 08:59:36;;;;;;;;;;;10.80;99.90;;;;;;5079822;28;20064;-69
2021/12/30 09:02:07;;;;;;;30.17;8.23;;;10.80;99.90;;;;;;5079850;28;19990;-68
2021/12/30 09:04:34;;;;;;;37.65;7.45;;;10.80;99.90;;;;;;5075989;28;20094;-68
2021/12/30 09:07:00;;;;;;;28.90;6.93;;;10.90;99.90;;;;;;5079225;28;20098;-69
2021/12/30 09:09:25;;;;;;;;;;;11.00;99.90;;;;;;5078745;28;20099;-64
2021/12/30 09:11:52;;;;;;;22.92;5.88;;;11.00;99.90;;;;;;5061837;28;20373;-69
2021/12/30 09:14:18;;;;;;;33.90;6.60;;;11.00;99.90;;;;;;5045587;28;20053;-70
2021/12/30 09:16:43;;;;;;;;;;;11.00;99.90;;;;;;5057490;28;20040;-69
2021/12/30 09:19:10;;;;;;;27.98;6.40;;;11.00;99.90;;;;;;5055180;28;19927;-69
2021/12/30 09:21:40;;;;;;;24.42;6.10;;;11.10;99.90;;;;;;5055267;28;20560;-68
2021/12/30 09:24:07;;;;;;;24.85;6.20;;;11.00;99.90;;;;;;5055879;28;20049;-69
2021/12/30 09:26:33;;;;;;;30.27;7.00;;;11.10;99.90;;;;;;5038262;28;20088;-69
2021/12/30 09:28:59;;;;;;;30.38;6.43;;;11.10;99.90;;;;;;5038560;28;20503;-69
2021/12/30 09:31:25;;;;;;;;;;;11.10;99.90;;;;;;5039678;28;20045;-69
2021/12/30 09:33:51;;;;;;;28.30;6.28;;;11.20;99.90;;;;;;5056464;28;19920;-69
2021/12/30 09:36:16;;;;;;;27.92;6.57;;;11.20;99.90;;;;;;5038388;28;20094;-69
2021/12/30 09:38:42;;;;;;;19.90;5.50;;;11.20;99.90;;;;;;5055738;28;20037;-69
2021/12/30 09:41:08;;;;;;;26.02;5.95;;;11.20;99.90;;;;;;5055825;28;20053;-69
2021/12/30 09:43:34;;;;;;;26.25;5.78;;;11.20;99.90;;;;;;5056095;28;20491;-69
2021/12/30 09:46:00;;;;;;;23.58;5.85;;;11.20;99.90;;;;;;5056537;28;20052;-69
2021/12/30 09:48:26;;;;;;;25.90;5.70;;;11.20;99.90;;;;;;5056202;28;20431;-69
2021/12/30 09:50:53;;;;;;;26.67;5.82;;;11.30;99.90;;;;;;5055716;28;20048;-69
2021/12/30 09:53:22;;;;;;;26.52;6.13;;;11.20;99.90;;;;;;5055575;28;20068;-69
2021/12/30 09:55:49;;;;;;;28.33;5.38;;;11.30;99.90;;;;;;5055472;28;20371;-71
2021/12/30 09:58:15;;;;;;;30.40;5.78;;;11.30;99.90;;;;;;5055490;28;20041;-69
2021/12/30 10:00:41;;;;;;;28.95;5.60;;;11.30;99.90;;;;;;5021395;28;20049;-69
2021/12/30 10:03:07;;;;;;;32.65;5.30;;;11.30;99.90;;;;;;5055437;28;20132;-69
2021/12/30 10:05:36;;;;;;;30.98;5.40;;;11.30;99.90;;;;;;5056146;28;20044;-69
2021/12/30 10:08:15;;;;;;;28.98;5.18;;;11.30;99.90;;;;;;5055167;28;20523;-69
2021/12/30 10:10:44;;;;;;;22.00;4.63;;;11.30;99.90;;;;;;5055855;28;20056;-68
2021/12/30 10:13:29;;;;;;;23.92;5.00;;;11.30;99.90;;;;;;5055215;28;20132;-68
2021/12/30 10:16:00;;;;;;;27.88;5.55;;;11.40;99.90;;;;;;5055141;28;20118;-68
2021/12/30 10:18:44;;;;;;;27.77;5.47;;;11.40;99.90;;;;;;5054818;28;20473;-68
2021/12/30 10:21:30;;;;;;;24.15;4.97;;;11.40;99.90;;;;;;5060648;28;20041;-68
2021/12/30 10:23:58;;;;;;;28.77;4.95;;;11.40;99.90;;;;;;5045187;28;20063;-68
2021/12/30 10:26:25;;;;;;;40.50;5.78;;;11.40;99.90;;;;;;5074935;28;20044;-67
2021/12/30 10:29:02;;;;;;;28.23;5.70;;;11.40;99.90;;;;;;5066681;28;20589;-67
2021/12/30 10:31:32;;;;;;;34.58;5.93;;;11.40;99.90;;;;;;5053052;28;20459;-69
2021/12/30 10:34:09;;;;;;;32.45;5.90;;;11.40;99.90;;;;;;5054746;28;20556;-67
2021/12/30 10:36:47;;;;;;;33.58;6.50;;;11.40;99.90;;;;;;5063018;28;20041;-68
2021/12/30 10:39:32;;;;;;;38.17;6.57;;;11.40;99.90;;;;;;5059834;28;20549;-69
2021/12/30 10:42:06;;;;;;;47.92;12.85;;;11.50;99.90;;;;;;5054667;28;20478;-70
2021/12/30 10:44:53;;;;;;;38.05;10.45;;;11.40;99.90;;;;;;5074437;28;20041;-68
2021/12/30 10:47:20;;;;;;;;;;;11.40;99.90;;;;;;5034053;28;20050;-68
2021/12/30 10:49:57;;;;;;;39.33;8.07;;;11.50;99.90;;;;;;5037028;28;19927;-67
2021/12/30 10:52:23;;;;;;;43.00;9.00;;;11.40;99.90;;;;;;5041613;28;20106;-68
2021/12/30 10:54:49;;;;;;;44.88;8.40;;;11.50;99.90;;;;;;5064217;28;20040;-69
2021/12/30 10:57:15;;;;;;;39.95;7.57;;;11.50;99.90;;;;;;5064386;28;20090;-68
2021/12/30 10:59:47;;;;;;;;;;;11.50;99.90;;;;;;5068769;28;20060;-68
2021/12/30 11:02:18;;;;;;;51.55;8.88;;;11.50;99.90;;;;;;5074244;28;19920;-68
2021/12/30 11:04:47;;;;;;;45.78;8.27;;;11.50;99.90;;;;;;5074920;28;20094;-68
2021/12/30 11:07:21;;;;;;;42.92;7.78;;;11.50;99.90;;;;;;5074150;28;20040;-68
2021/12/30 11:09:53;;;;;;;41.78;8.02;;;11.50;99.90;;;;;;5074126;28;20076;-68
2021/12/30 11:12:27;;;;;;;47.15;8.38;;;11.50;99.90;;;;;;5062424;28;20040;-69
2021/12/30 11:14:54;;;;;;;55.20;8.15;;;11.50;99.90;;;;;;5074021;28;20048;-70
2021/12/30 11:17:24;;;;;;;38.03;8.55;;;11.50;99.90;;;;;;5073964;28;20391;-68
2021/12/30 11:19:55;;;;;;;52.58;8.35;;;11.50;99.90;;;;;;5073887;28;20051;-69
2021/12/30 11:22:28;;;;;;;47.45;8.02;;;11.50;99.90;;;;;;5074091;28;20087;-68
2021/12/30 11:25:00;;;;;;;47.30;8.52;;;11.50;99.90;;;;;;5057894;28;20107;-67
2021/12/30 11:27:28;;;;;;;41.92;8.57;;;11.60;99.90;;;;;;5053894;28;20049;-68
2021/12/30 11:30:00;;;;;;;43.35;7.53;;;11.50;99.90;;;;;;5036256;28;20052;-67
2021/12/30 11:32:28;;;;;;;40.67;7.20;;;11.60;99.90;;;;;;5054239;28;20060;-67
2021/12/30 11:34:55;;;;;;;45.33;8.88;;;11.60;99.90;;;;;;5053479;28;20045;-67
2021/12/30 11:37:21;;;;;;;36.65;6.95;;;11.60;99.90;;;;;;5053571;28;20507;-68
2021/12/30 11:39:59;;;;;;;46.33;7.50;;;11.60;99.90;;;;;;5053578;28;20045;-69
2021/12/30 11:42:28;;;;;;;47.20;7.15;;;11.60;99.90;;;;;;5053702;28;20056;-68
2021/12/30 11:44:58;;;;;;;41.13;7.25;;;11.70;99.90;;;;;;5053438;28;20056;-68
2021/12/30 11:47:36;;;;;;;35.00;6.53;;;11.70;99.90;;;;;;5053585;28;20084;-68
2021/12/30 11:50:11;;;;;;;40.45;7.32;;;11.60;99.90;;;;;;5053652;28;20151;-68
2021/12/30 11:52:46;;;;;;;39.97;7.73;;;11.70;99.90;;;;;;5053702;28;20049;-68
2021/12/30 11:55:47;;;;;;;37.72;6.70;;;11.70;99.90;;;;;;5053075;28;20504;-68
2021/12/30 11:58:27;;;;;;;37.60;6.68;;;11.70;99.90;;;;;;5027337;28;20048;-68
2021/12/30 12:01:17;;;;;;;36.65;6.95;;;11.70;99.90;;;;;;5054450;28;20057;-68
2021/12/30 12:04:16;;;;;;;33.95;5.95;;;11.70;99.90;;;;;;5038734;28;20053;-67
2021/12/30 12:06:45;;;;;;;35.17;6.72;;;11.70;99.90;;;;;;5052902;28;20057;-68
2021/12/30 12:09:22;;;;;;;36.72;7.00;;;11.70;99.90;;;;;;5052092;28;20477;-67
2021/12/30 12:11:49;;;;;;;33.40;5.95;;;11.80;99.90;;;;;;5053932;28;20056;-69
2021/12/30 12:14:19;;;;;;;40.17;6.90;;;11.70;99.90;;;;;;5053660;28;20052;-68
2021/12/30 12:16:53;;;;;;;37.90;7.32;;;11.70;99.90;;;;;;5053291;28;20045;-67
2021/12/30 12:19:21;;;;;;;37.08;6.53;;;11.80;99.90;;;;;;5035157;28;20550;-68
2021/12/30 12:21:53;;;;;;;41.85;7.60;;;11.80;99.90;;;;;;5053750;28;20076;-68
2021/12/30 12:24:22;;;;;;;28.85;6.30;;;11.80;99.90;;;;;;5042130;28;20053;-67
2021/12/30 12:26:50;;;;;;;36.75;6.63;;;11.80;99.90;;;;;;5033350;28;20096;-67
2021/12/30 12:29:23;;;;;;;29.35;6.20;;;11.80;99.90;;;;;;5033806;28;20456;-68
2021/12/30 12:31:55;;;;;;;31.55;6.35;;;11.80;99.90;;;;;;5033863;28;20045;-67
2021/12/30 12:34:38;;;;;;;29.60;5.65;;;11.80;99.90;;;;;;5033046;28;20061;-68
2021/12/30 12:37:25;;;;;;;32.65;5.95;;;11.80;99.90;;;;;;5033852;28;20099;-68
2021/12/30 12:40:10;;;;;;;35.38;6.35;;;11.80;99.90;;;;;;5033068;28;20053;-67
2021/12/30 12:42:51;;;;;;;36.38;7.13;;;11.80;99.90;;;;;;5016232;28;20389;-67
2021/12/30 12:45:19;;;;;;;30.10;6.32;;;11.80;99.90;;;;;;5034079;28;20045;-67
2021/12/30 12:47:46;;;;;;;32.10;5.97;;;11.80;99.90;;;;;;5020076;28;20104;-68
2021/12/30 12:50:13;;;;;;;33.15;5.93;;;11.70;99.90;;;;;;5036770;28;20081;-67
2021/12/30 12:52:46;;;;;;;32.33;6.35;;;11.80;99.90;;;;;;5053156;28;20040;-66
2021/12/30 12:55:22;;;;;;;32.55;6.13;;;11.80;99.90;;;;;;5064379;28;20048;-67
2021/12/30 12:57:48;;;;;;;34.97;5.88;;;11.70;99.90;;;;;;5063551;28;20040;-66
2021/12/30 13:00:14;;;;;;;34.95;6.57;;;11.70;99.90;;;;;;5070292;28;20056;-66
2021/12/30 13:02:46;;;;;;;36.08;6.47;;;11.80;99.90;;;;;;5070292;28;20135;-67
2021/12/30 13:05:15;;;;;;;34.92;6.15;;;11.70;99.90;;;;;;5068735;28;20053;-66
2021/12/30 13:07:42;;;;;;;30.88;5.80;;;11.70;99.90;;;;;;5075183;28;20052;-67
2021/12/30 13:10:10;;;;;;;29.98;6.30;;;11.70;99.90;;;;;;5075619;28;20048;-68
2021/12/30 13:12:38;;;;;;;33.92;6.30;;;11.70;99.90;;;;;;5058458;28;20573;-67
2021/12/30 13:15:11;;;;;;;35.15;6.13;;;11.70;99.90;;;;;;5075609;28;20060;-66
2021/12/30 13:17:37;;;;;;;35.95;6.15;;;11.60;99.90;;;;;;5060268;28;20040;-66
2021/12/30 13:20:03;;;;;;;30.17;7.00;;;11.60;99.90;;;;;;5056146;28;20044;-66
2021/12/30 13:22:29;;;;;;;39.03;6.68;;;11.60;99.90;;;;;;5054926;28;20489;-67
2021/12/30 13:25:00;;;;;;;36.15;6.30;;;11.70;99.90;;;;;;5022153;28;20050;-66
2021/12/30 13:27:34;;;;;;;39.80;6.85;;;11.60;99.90;;;;;;5019275;28;20449;-67
2021/12/30 13:30:15;;;;;;;35.95;6.25;;;11.60;99.90;;;;;;5036934;28;20060;-67
2021/12/30 13:32:53;;;;;;;38.20;7.22;;;11.70;99.90;;;;;;5018393;28;20060;-67
2021/12/30 13:35:19;;;;;;;41.60;6.80;;;11.70;99.90;;;;;;5036029;28;20049;-67
2021/12/30 13:37:49;;;;;;;38.15;6.50;;;11.70;99.90;;;;;;5036105;28;20191;-67
2021/12/30 13:40:40;;;;;;;35.60;7.25;;;11.70;99.90;;;;;;5019351;28;20057;-67
2021/12/30 13:43:19;;;;;;;39.72;6.65;;;11.70;99.90;;;;;;5035844;28;20050;-67
2021/12/30 13:45:59;;;;;;;37.28;6.82;;;11.70;99.90;;;;;;5035900;28;20497;-67
2021/12/30 13:48:28;;;;;;;40.55;7.38;;;11.70;99.90;;;;;;5035867;28;20120;-68
2021/12/30 13:51:02;;;;;;;34.50;6.82;;;11.70;99.90;;;;;;5035681;28;20049;-66
2021/12/30 13:53:30;;;;;;;45.03;9.32;;;11.70;99.90;;;;;;5036457;28;20136;-68
2021/12/30 13:56:04;;;;;;;37.22;7.35;;;11.70;99.90;;;;;;5035625;28;20517;-68
2021/12/30 13:58:40;;;;;;;41.30;7.18;;;11.70;99.90;;;;;;5018258;28;20052;-67
2021/12/30 14:01:17;;;;;;;38.45;7.18;;;11.80;99.90;;;;;;5035604;28;20061;-68
2021/12/30 14:03:49;;;;;;;41.53;7.38;;;11.70;99.90;;;;;;5035554;28;20045;-68
2021/12/30 14:06:24;;;;;;;42.95;7.63;;;11.70;99.90;;;;;;5047209;28;20037;-68
2021/12/30 14:08:52;;;;;;;37.50;7.18;;;11.70;99.90;;;;;;5075333;28;20045;-68
2021/12/30 14:11:36;;;;;;;37.05;7.30;;;11.80;99.90;;;;;;5075238;28;20045;-69
2021/12/30 14:14:05;;;;;;;36.60;7.07;;;11.70;99.90;;;;;;5074957;28;20484;-68
2021/12/30 14:16:36;;;;;;;38.58;6.72;;;11.70;99.90;;;;;;5075115;28;20045;-68
2021/12/30 14:19:02;;;;;;;33.55;6.13;;;11.70;99.90;;;;;;5075519;28;20354;-67
2021/12/30 14:21:33;;;;;;;37.70;6.93;;;11.70;99.90;;;;;;5075069;28;20052;-69
2021/12/30 14:24:23;;;;;;;36.95;6.65;;;11.70;99.90;;;;;;5060913;28;20045;-68
2021/12/30 14:26:58;;;;;;;38.22;6.97;;;11.60;99.90;;;;;;5038176;28;20200;-66
2021/12/30 14:29:28;;;;;;;34.90;6.30;;;11.70;99.90;;;;;;5054510;28;20549;-66
2021/12/30 14:31:53;;;;;;;29.02;5.82;;;11.70;99.90;;;;;;5062328;28;20041;-66
2021/12/30 14:34:31;;;;;;;30.70;6.55;;;11.60;99.90;;;;;;5074477;28;20472;-66
2021/12/30 14:36:56;;;;;;;36.95;6.22;;;11.70;99.90;;;;;;5074753;28;20056;-67
2021/12/30 14:39:26;;;;;;;30.50;6.15;;;11.70;99.90;;;;;;5040153;28;20041;-66
2021/12/30 14:42:04;;;;;;;32.38;5.60;;;11.60;99.90;;;;;;5068645;28;20435;-66
2021/12/30 14:44:30;;;;;;;27.13;5.57;;;11.60;99.90;;;;;;5063304;28;20048;-66
2021/12/30 14:47:04;;;;;;;25.92;5.22;;;11.60;99.90;;;;;;5056901;28;20049;-65
2021/12/30 14:49:30;;;;;;;32.00;6.80;;;11.60;99.90;;;;;;5036699;28;20053;-65
2021/12/30 14:52:17;;;;;;;30.25;7.03;;;11.70;99.90;;;;;;5054447;28;20049;-66
2021/12/30 14:54:43;;;;;;;25.65;5.07;;;11.60;99.90;;;;;;5061639;28;20106;-66
2021/12/30 14:57:11;;;;;;;35.08;5.93;;;11.60;99.90;;;;;;5071468;28;20080;-67
2021/12/30 14:59:37;;;;;;;25.83;5.30;;;11.60;99.90;;;;;;5070679;28;20061;-66
2021/12/30 15:02:03;;;;;;;28.40;6.35;;;11.60;99.90;;;;;;5067118;28;20049;-65
2021/12/30 15:04:28;;;;;;;30.50;5.65;;;11.60;99.90;;;;;;5057593;28;20075;-65
2021/12/30 15:06:54;;;;;;;21.90;5.75;;;11.60;99.90;;;;;;5052983;28;20133;-67
2021/12/30 15:09:20;;;;;;;24.77;5.40;;;11.70;99.90;;;;;;5053001;28;20041;-67
2021/12/30 15:11:45;;;;;;;26.90;6.03;;;11.60;99.90;;;;;;5035931;28;20526;-65
2021/12/30 15:14:11;;;;;;;24.38;5.07;;;11.70;99.90;;;;;;5053487;28;20037;-66
2021/12/30 15:16:37;;;;;;;;;;;11.60;99.90;;;;;;5054072;28;20051;-66
2021/12/30 15:19:03;;;;;;;28.77;6.22;;;11.70;99.90;;;;;;5061729;28;20015;-65
2021/12/30 15:21:28;;;;;;;23.95;5.65;;;11.60;99.90;;;;;;5063669;28;20392;-66
2021/12/30 15:23:54;;;;;;;30.65;5.95;;;11.60;99.90;;;;;;5057609;28;20128;-66
2021/12/30 15:31:31;;;;;;;31.27;5.82;;;11.60;99.90;;;;;;4769767;23;20082;-67
2021/12/30 15:33:57;;;;;;;28.00;6.25;;;11.60;99.90;;;;;;4976007;28;20109;-66
2021/12/30 15:36:23;;;;;;;31.17;6.05;;;11.50;99.90;;;;;;4975833;28;20053;-67
2021/12/30 15:38:52;;;;;;;32.55;5.70;;;11.60;99.90;;;;;;4974224;28;20054;-67
2021/12/30 15:41:18;;;;;;;33.20;5.95;;;11.50;99.90;;;;;;4951659;29;20047;-66
2021/12/30 15:44:16;;;;;;;27.10;5.60;;;11.60;99.90;;;;;;4954453;28;20395;-68
2021/12/30 15:46:42;;;;;;;26.83;5.40;;;11.60;99.90;;;;;;4936983;29;20630;-67
2021/12/30 15:49:08;;;;;;;30.85;8.43;;;11.60;99.90;;;;;;4947220;29;20047;-66
2021/12/30 15:51:35;;;;;;;26.23;5.78;;;11.60;99.90;;;;;;4949071;28;20440;-67
2021/12/30 15:54:03;;;;;;;27.77;6.43;;;11.60;99.90;;;;;;4936022;29;20127;-67
2021/12/30 15:56:29;;;;;;;29.80;5.93;;;11.60;99.90;;;;;;4936091;29;20051;-67
2021/12/30 15:58:55;;;;;;;26.95;6.32;;;11.60;99.90;;;;;;4927572;29;20115;-67
2021/12/30 16:01:21;;;;;;;23.60;6.00;;;11.60;99.90;;;;;;4935677;29;20118;-66
2021/12/30 16:03:46;;;;;;;23.05;5.65;;;11.60;99.90;;;;;;4935997;29;20548;-67
2021/12/30 16:06:12;;;;;;;26.20;5.68;;;11.60;99.90;;;;;;4935926;29;20135;-67
2021/12/30 16:08:39;;;;;;;26.38;6.35;;;11.60;99.90;;;;;;4924126;29;20396;-66
2021/12/30 16:11:04;;;;;;;30.48;6.85;;;11.60;99.90;;;;;;4934464;29;20472;-66
2021/12/30 16:13:30;;;;;;;32.15;7.13;;;11.60;99.90;;;;;;4935891;29;20048;-66
2021/12/30 16:15:56;;;;;;;32.72;7.22;;;11.50;99.90;;;;;;4935735;29;20047;-66
2021/12/30 16:18:22;;;;;;;24.25;7.28;;;11.50;99.90;;;;;;4936192;29;20047;-65
2021/12/30 16:20:50;;;;;;;31.05;7.55;;;11.40;99.90;;;;;;4938176;29;20411;-64
2021/12/30 16:23:17;;;;;;;33.28;7.88;;;11.30;99.90;;;;;;4939831;29;20493;-65
2021/12/30 16:25:43;;;;;;;34.67;8.43;;;11.20;99.90;;;;;;4950347;29;20566;-66
2021/12/30 16:28:09;;;;;;;34.33;8.60;;;11.10;99.90;;;;;;4959218;28;20055;-65
2021/12/30 16:30:35;;;;;;;;;;;11.10;99.90;;;;;;4958294;29;20051;-66
2021/12/30 16:33:01;;;;;;;42.47;10.90;;;11.10;99.90;;;;;;4959128;28;19977;-66
2021/12/30 16:35:26;;;;;;;42.30;11.88;;;11.00;99.90;;;;;;4959830;29;20084;-66
2021/12/30 16:37:53;;;;;;;45.55;12.10;;;11.00;99.90;;;;;;4959048;29;20616;-66
2021/12/30 16:40:19;;;;;;;;;;;10.90;99.90;;;;;;4959704;28;20051;-66
2021/12/30 16:42:45;;;;;;;52.58;12.48;;;10.90;99.90;;;;;;4939263;28;19929;-66
2021/12/30 16:45:13;;;;;;;49.63;14.93;;;10.90;99.90;;;;;;4937863;29;20095;-65
2021/12/30 16:47:40;;;;;;;44.95;15.00;;;10.90;99.90;;;;;;4936817;29;20052;-65
2021/12/30 16:50:08;;;;;;;52.40;14.75;;;10.90;99.90;;;;;;4937667;29;20083;-66
2021/12/30 16:52:33;;;;;;;51.78;15.70;;;10.90;99.90;;;;;;4939166;29;20039;-67
2021/12/30 16:54:59;;;;;;;52.47;14.52;;;10.90;99.90;;;;;;4938988;29;20040;-67
2021/12/30 16:57:26;;;;;;;52.65;14.27;;;10.90;99.90;;;;;;4938144;29;20086;-66
2021/12/30 16:59:52;;;;;;;46.10;14.55;;;10.90;99.90;;;;;;4938839;29;20052;-68
2021/12/30 17:02:18;;;;;;;;;;;11.00;99.90;;;;;;4939044;29;20047;-67
2021/12/30 17:04:44;;;;;;;57.92;15.32;;;11.00;99.90;;;;;;4938834;29;19923;-66
2021/12/30 17:07:09;;;;;;;53.53;17.05;;;11.00;99.90;;;;;;4937899;29;20365;-67
2021/12/30 17:09:36;;;;;;;38.08;15.05;;;11.00;99.90;;;;;;4938482;29;20078;-67
2021/12/30 17:12:03;;;;;;;49.67;14.18;;;11.10;99.90;;;;;;4936168;29;20043;-69
2021/12/30 17:14:30;;;;;;;56.63;15.18;;;11.10;99.90;;;;;;4938799;29;20051;-67
2021/12/30 17:16:57;;;;;;;51.00;19.00;;;11.10;99.90;;;;;;4938061;29;20048;-68
2021/12/30 17:19:23;;;;;;;38.67;13.95;;;11.10;99.90;;;;;;4939274;29;20420;-67
2021/12/30 17:21:49;;;;;;;;;;;11.10;99.90;;;;;;4939449;29;20494;-68
2021/12/30 17:24:15;;;;;;;42.70;13.93;;;11.00;99.90;;;;;;4939037;29;19923;-68
2021/12/30 17:26:41;;;;;;;43.97;13.85;;;11.00;99.90;;;;;;4957950;29;20054;-67
2021/12/30 17:29:08;;;;;;;44.42;13.02;;;11.00;99.90;;;;;;4958583;29;20049;-68
2021/12/30 17:31:34;;;;;;;31.38;12.85;;;11.00;99.90;;;;;;4957243;28;20051;-68
2021/12/30 17:34:01;;;;;;;41.40;13.15;;;11.00;99.90;;;;;;4957414;29;20495;-68
2021/12/30 17:36:27;;;;;;;42.38;14.73;;;10.90;99.90;;;;;;4956885;28;20055;-67
2021/12/30 17:38:53;;;;;;;43.53;14.15;;;10.90;99.90;;;;;;4951467;29;20099;-68
2021/12/30 17:41:19;;;;;;;;;;;10.90;99.90;;;;;;4938547;29;20127;-67
2021/12/30 17:43:46;;;;;;;50.70;21.27;;;10.90;99.90;;;;;;4938010;29;20010;-68
2021/12/30 17:46:11;;;;;;;36.38;12.73;;;10.90;99.90;;;;;;4936842;29;20110;-69
2021/12/30 17:48:38;;;;;;;35.90;14.45;;;10.90;99.90;;;;;;4938087;29;20051;-66
2021/12/30 17:51:04;;;;;;;28.75;10.90;;;10.80;99.90;;;;;;4934555;29;20075;-67
2021/12/30 17:53:31;;;;;;;41.00;11.80;;;10.80;99.90;;;;;;4938093;29;20099;-67
2021/12/30 17:55:58;;;;;;;35.30;11.63;;;10.80;99.90;;;;;;4939024;29;20437;-67
2021/12/30 17:58:25;;;;;;;39.67;12.25;;;10.80;99.90;;;;;;4937407;29;20055;-67
2021/12/30 18:00:51;;;;;;;39.25;11.07;;;10.70;99.90;;;;;;4937309;29;20495;-67
2021/12/30 18:03:18;;;;;;;36.22;11.13;;;10.90;99.90;;;;;;4937775;29;20056;-69
2021/12/30 18:05:44;;;;;;;30.80;10.77;;;10.80;99.90;;;;;;4937676;29;20481;-67
2021/12/30 18:08:10;;;;;;;;;;;10.80;99.90;;;;;;4938714;29;20047;-66
2021/12/30 18:10:36;;;;;;;35.35;10.77;;;10.80;99.90;;;;;;4938386;29;19929;-66
2021/12/30 18:13:03;;;;;;;31.15;9.90;;;10.80;99.90;;;;;;4938941;29;20040;-64
2021/12/30 18:15:34;;;;;;;36.35;10.85;;;10.80;99.90;;;;;;4936936;29;20058;-66
2021/12/30 18:18:01;;;;;;;34.63;10.32;;;10.80;99.90;;;;;;4938007;29;20483;-67
2021/12/30 18:20:26;;;;;;;;;;;10.80;99.90;;;;;;4938273;29;20048;-67
2021/12/30 18:22:53;;;;;;;34.53;10.70;;;10.80;99.90;;;;;;4938246;29;19934;-68
2021/12/30 18:25:19;;;;;;;40.15;13.95;;;10.80;99.90;;;;;;4937806;29;20602;-67
2021/12/30 18:27:45;;;;;;;;;;;10.80;99.90;;;;;;4938210;29;20057;-66
2021/12/30 18:30:12;;;;;;;39.05;15.13;;;10.80;99.90;;;;;;4937412;29;20009;-66
2021/12/30 18:32:38;;;;;;;37.67;10.93;;;10.80;99.90;;;;;;4937337;29;20134;-66
2021/12/30 18:35:05;;;;;;;39.65;11.73;;;10.80;99.90;;;;;;4937676;29;20074;-69
2021/12/30 18:37:30;;;;;;;33.08;11.75;;;10.80;99.90;;;;;;4937587;29;20062;-67
2021/12/30 18:39:56;;;;;;;36.50;10.60;;;10.70;99.90;;;;;;4937061;29;20044;-67
2021/12/30 18:42:25;;;;;;;;;;;10.80;99.90;;;;;;4936838;29;20043;-67
2021/12/30 18:44:52;;;;;;;35.97;10.77;;;10.70;99.90;;;;;;4936895;29;20014;-66
2021/12/30 18:47:18;;;;;;;41.13;10.57;;;10.70;99.90;;;;;;4935992;29;20455;-67
2021/12/30 18:49:43;;;;;;;38.10;11.15;;;10.80;99.90;;;;;;4936893;29;20119;-67
2021/12/30 18:52:15;;;;;;;41.88;11.18;;;10.80;99.90;;;;;;4936875;29;20514;-66
2021/12/30 18:54:45;;;;;;;35.60;9.82;;;10.70;99.90;;;;;;4936942;29;20044;-67
2021/12/30 18:57:12;;;;;;;36.58;9.88;;;10.70;99.90;;;;;;4918298;29;20488;-66
2021/12/30 18:59:38;;;;;;;40.13;10.10;;;10.80;99.90;;;;;;4918152;29;20131;-66
2021/12/30 19:02:05;;;;;;;36.65;9.23;;;10.80;99.90;;;;;;4918228;29;20051;-67
2021/12/30 19:04:31;;;;;;;48.60;10.35;;;10.80;99.90;;;;;;4918187;29;20130;-67
2021/12/30 19:06:58;;;;;;;37.75;9.90;;;10.70;99.90;;;;;;4918177;29;20107;-67
2021/12/30 19:09:25;;;;;;;39.25;11.00;;;10.80;99.90;;;;;;4918179;29;20080;-67
2021/12/30 19:11:54;;;;;;;38.22;10.48;;;10.80;99.90;;;;;;4918056;29;20131;-66
2021/12/30 19:14:20;;;;;;;39.47;9.30;;;10.90;99.90;;;;;;4918311;29;20502;-66
2021/12/30 19:16:46;;;;;;;44.92;10.20;;;10.80;99.90;;;;;;4917052;29;20059;-66
2021/12/30 19:19:24;;;;;;;41.65;10.10;;;10.80;99.90;;;;;;4925189;29;20408;-73
2021/12/30 19:21:57;;;;;;;44.25;14.20;;;10.90;99.90;;;;;;4914062;29;20056;-66
2021/12/30 19:24:23;;;;;;;37.80;10.23;;;10.90;99.90;;;;;;4929762;29;20408;-67
2021/12/30 19:26:49;;;;;;;37.58;8.52;;;10.90;99.90;;;;;;4937922;29;20106;-67
2021/12/30 19:29:15;;;;;;;35.03;8.80;;;11.00;99.90;;;;;;4935054;29;20484;-67
2021/12/30 19:31:41;;;;;;;33.03;8.45;;;11.00;99.90;;;;;;4933201;29;20099;-67
2021/12/30 19:34:10;;;;;;;37.30;7.75;;;11.10;99.90;;;;;;4936313;29;20416;-73
2021/12/30 19:36:36;;;;;;;28.98;7.20;;;11.20;99.90;;;;;;4933801;29;20066;-66
2021/12/30 19:39:03;;;;;;;;;;;11.20;99.90;;;;;;4936078;29;20523;-68
2021/12/30 19:41:29;;;;;;;39.33;6.97;;;11.30;99.90;;;;;;4936305;29;20396;-67
2021/12/30 19:43:55;;;;;;;33.65;6.88;;;11.30;99.90;;;;;;4936146;29;20134;-66
2021/12/30 19:46:20;;;;;;;32.30;7.20;;;11.40;99.90;;;;;;4936175;29;20051;-66
2021/12/30 19:48:46;;;;;;;33.00;6.72;;;11.50;99.90;;;;;;4935204;29;20051;-66
2021/12/30 19:51:12;;;;;;;33.90;7.20;;;11.50;99.90;;;;;;4935977;29;20039;-67
2021/12/30 19:53:39;;;;;;;37.85;8.65;;;11.50;99.90;;;;;;4935419;29;20055;-66
2021/12/30 19:56:06;;;;;;;40.20;6.93;;;11.50;99.90;;;;;;4935591;29;20035;-65
2021/12/30 19:58:33;;;;;;;32.72;6.97;;;11.40;99.90;;;;;;4935650;29;20051;-67
2021/12/30 20:00:59;;;;;;;31.80;6.30;;;11.40;99.90;;;;;;4935882;29;20043;-66
2021/12/30 20:03:25;;;;;;;29.30;6.32;;;11.40;99.90;;;;;;4935929;29;20087;-67
2021/12/30 20:05:53;;;;;;;27.95;6.20;;;11.50;99.90;;;;;;4935888;29;20433;-67
2021/12/30 20:08:20;;;;;;;30.98;7.25;;;11.40;99.90;;;;;;4934946;29;20044;-66
2021/12/30 20:10:46;;;;;;;33.03;7.40;;;11.40;99.90;;;;;;4933233;29;20123;-65
2021/12/30 20:13:15;;;;;;;36.13;8.35;;;11.40;99.90;;;;;;4936016;29;20131;-66
2021/12/30 20:15:42;;;;;;;35.83;7.97;;;11.40;99.90;;;;;;4935808;29;20067;-67
2021/12/30 20:18:07;;;;;;;32.03;7.32;;;11.40;99.90;;;;;;4935756;29;20126;-66
2021/12/30 20:20:34;;;;;;;30.98;6.40;;;11.30;99.90;;;;;;4935761;29;20135;-67
2021/12/30 20:23:01;;;;;;;33.55;6.80;;;11.30;99.90;;;;;;4935827;29;20083;-66
2021/12/30 20:25:28;;;;;;;34.20;6.95;;;11.30;99.90;;;;;;4932645;29;20130;-67
2021/12/30 20:27:55;;;;;;;28.60;6.55;;;11.30;99.90;;;;;;4935665;29;20066;-66
2021/12/30 20:30:25;;;;;;;29.45;6.05;;;11.40;99.90;;;;;;4935391;29;20103;-66
2021/12/30 20:32:52;;;;;;;31.35;6.47;;;11.30;99.90;;;;;;4935754;29;20055;-67
2021/12/30 20:35:19;;;;;;;31.63;6.57;;;11.40;99.90;;;;;;4934557;29;20059;-65
2021/12/30 20:37:46;;;;;;;24.40;5.78;;;11.40;99.90;;;;;;4935881;29;20054;-66
2021/12/30 20:40:15;;;;;;;26.60;5.65;;;11.50;99.90;;;;;;4936125;29;20062;-68
2021/12/30 20:42:42;;;;;;;29.02;6.30;;;11.50;99.90;;;;;;4935963;29;20086;-66
2021/12/30 20:45:10;;;;;;;25.30;5.28;;;11.50;99.90;;;;;;4936040;29;20043;-66
2021/12/30 20:47:41;;;;;;;21.85;4.90;;;11.50;99.90;;;;;;4935948;29;20048;-65
2021/12/30 20:50:09;;;;;;;29.40;4.82;;;11.50;99.90;;;;;;4936445;29;20088;-66
2021/12/30 20:52:35;;;;;;;28.20;5.05;;;11.50;99.90;;;;;;4936440;29;20129;-66